Time;durP1;ratioP1;P1;durP2;ratioP2;P2;SDS_P1;SDS_P2;PMS_P1;PMS_P2;Temp;Humidity;BMP_temperature;BMP_pressure;BME280_temperature;BME280_humidity;BME280_pressure;Samples;Min_cycle;Max_cycle;Signal;HPM_P1;HPM_P2
2022/01/27 00:02:29;;;;;;;32.35;24.38;;;;;;;-1.63;100.00;96997.66;5070914;28;24904;-77
2022/01/27 00:05:08;;;;;;;27.37;23.50;;;;;;;-1.58;100.00;97007.00;5070996;28;25142;-77
2022/01/27 00:07:35;;;;;;;31.40;25.37;;;;;;;-1.67;100.00;96998.47;5111608;27;24469;-77
2022/01/27 00:10:13;;;;;;;26.98;23.52;;;;;;;-1.79;100.00;97000.13;5134540;27;24816;-77
2022/01/27 00:12:42;;;;;;;30.05;24.85;;;;;;;-1.68;100.00;97000.19;5134584;27;24413;-78
2022/01/27 00:15:10;;;;;;;31.13;24.38;;;;;;;-1.64;100.00;96999.34;5133943;27;24417;-77
2022/01/27 00:17:40;;;;;;;30.90;24.03;;;;;;;-1.75;100.00;96996.75;5134187;27;24417;-77
2022/01/27 00:20:08;;;;;;;28.88;23.42;;;;;;;-1.83;100.00;97000.94;5134273;27;24464;-77
2022/01/27 00:22:35;;;;;;;28.88;22.60;;;;;;;-1.88;100.00;96999.25;5134567;27;24425;-77
2022/01/27 00:25:05;;;;;;;29.90;22.77;;;;;;;-1.82;100.00;97007.72;5134378;27;24440;-77
2022/01/27 00:27:32;;;;;;;27.85;22.05;;;;;;;-1.68;100.00;96999.31;5134219;27;24421;-77
2022/01/27 00:30:00;;;;;;;25.95;22.17;;;;;;;-1.67;100.00;96998.47;5134206;27;24431;-78
2022/01/27 00:32:26;;;;;;;27.25;22.23;;;;;;;-1.76;100.00;96995.06;5134297;27;24423;-77
2022/01/27 00:34:53;;;;;;;29.98;21.75;;;;;;;-1.81;100.00;96988.28;5134353;27;24421;-77
2022/01/27 00:37:20;;;;;;;25.52;22.77;;;;;;;-1.99;100.00;96997.47;5133775;27;24505;-77
2022/01/27 00:39:46;;;;;;;27.67;21.80;;;;;;;-2.05;100.00;96988.97;5133858;27;24416;-78
2022/01/27 00:42:14;;;;;;;24.67;21.88;;;;;;;-1.99;100.00;96981.41;5133737;27;24489;-78
2022/01/27 00:44:40;;;;;;;29.15;23.05;;;;;;;-1.95;100.00;96983.13;5133846;27;24448;-77
2022/01/27 00:47:07;;;;;;;27.52;22.52;;;;;;;-1.97;100.00;96984.78;5134070;27;24421;-78
2022/01/27 00:49:36;;;;;;;26.63;22.25;;;;;;;-2.00;100.00;96972.94;5133920;27;24427;-77
2022/01/27 00:52:03;;;;;;;26.98;22.08;;;;;;;-1.91;100.00;96974.66;5133938;27;24425;-77
2022/01/27 00:54:30;;;;;;;32.03;23.38;;;;;;;-1.96;100.00;96972.13;5133739;27;24417;-78
2022/01/27 00:57:05;;;;;;;28.80;21.77;;;;;;;-1.99;100.00;96969.56;5133494;27;24416;-77
2022/01/27 00:59:40;;;;;;;32.22;22.88;;;;;;;-2.00;100.00;96964.47;5133815;27;24451;-77
2022/01/27 01:02:15;;;;;;;26.73;22.70;;;;;;;-2.02;100.00;96972.06;5133338;27;24532;-77
2022/01/27 01:04:46;;;;;;;29.92;22.05;;;;;;;-1.99;100.00;96966.16;5133201;27;24527;-77
2022/01/27 01:07:14;;;;;;;28.73;21.58;;;;;;;-1.95;100.00;96967.88;5133494;27;24470;-77
2022/01/27 01:15:28;;;;;;;31.13;22.27;;;;;;;-2.05;100.00;96978.81;5074506;27;24438;-77
2022/01/27 01:18:05;;;;;;;25.75;21.02;;;;;;;-2.03;100.00;96974.63;5133238;27;24512;-77
2022/01/27 01:20:50;;;;;;;27.77;21.08;;;;;;;-2.08;100.00;96973.72;5133070;27;24449;-77
2022/01/27 01:31:49;;;;;;;30.55;22.33;;;;;;;-2.06;100.00;96966.97;5132451;27;24446;-77
2022/01/27 01:34:19;;;;;;;25.20;21.00;;;;;;;-2.05;100.00;96969.50;5132985;27;24473;-77
2022/01/27 01:36:54;;;;;;;26.23;20.77;;;;;;;-2.08;100.00;96969.47;5132325;27;24974;-77
2022/01/27 01:39:22;;;;;;;24.55;20.50;;;;;;;-2.11;100.00;96968.63;5132710;27;24425;-77
2022/01/27 01:41:49;;;;;;;26.08;19.05;;;;;;;-2.07;100.00;96970.34;5132553;27;24520;-77
2022/01/27 01:44:15;;;;;;;25.98;21.38;;;;;;;-2.07;100.00;96971.22;5132730;27;24444;-77
2022/01/27 01:46:43;;;;;;;25.13;21.13;;;;;;;-2.04;100.00;96973.75;5132603;27;24466;-77
2022/01/27 01:49:10;;;;;;;22.77;19.80;;;;;;;-2.06;100.00;96979.66;5132519;27;24454;-77
2022/01/27 01:51:39;;;;;;;24.17;20.85;;;;;;;-2.02;100.00;96974.59;5132619;27;24433;-77
2022/01/27 01:54:07;;;;;;;24.52;19.17;;;;;;;-2.08;100.00;96972.03;5132325;27;25014;-77
2022/01/27 01:56:36;;;;;;;23.60;20.70;;;;;;;-1.99;100.00;96967.00;5132145;27;24432;-77
2022/01/27 01:59:03;;;;;;;22.73;20.33;;;;;;;-2.09;100.00;96972.88;5132389;27;24860;-77
2022/01/27 02:01:29;;;;;;;25.90;21.45;;;;;;;-2.09;100.00;96965.25;5132232;27;24421;-77
2022/01/27 02:03:59;;;;;;;26.08;22.25;;;;;;;-2.18;100.00;96974.53;5132297;27;24444;-77
2022/01/27 02:06:31;;;;;;;25.80;21.65;;;;;;;-2.26;100.00;96972.78;5132356;27;24526;-77
2022/01/27 02:09:12;;;;;;;27.10;21.25;;;;;;;-2.26;100.00;96957.56;5132334;27;24429;-77
2022/01/27 02:19:55;;;;;;;27.17;22.48;;;;;;;-2.15;100.00;96939.84;5132070;27;24450;-78
2022/01/27 02:22:22;;;;;;;28.98;23.23;;;;;;;-2.20;100.00;96937.28;5132162;27;24957;-78
2022/01/27 02:24:50;;;;;;;27.50;22.20;;;;;;;-2.32;100.00;96928.75;5132018;27;24444;-77
2022/01/27 02:27:18;;;;;;;28.80;21.95;;;;;;;-2.32;100.00;96927.06;5131661;27;24417;-77
2022/01/27 02:29:45;;;;;;;27.13;22.50;;;;;;;-2.49;100.00;96926.94;5131955;27;24973;-77
2022/01/27 02:32:13;;;;;;;26.58;22.60;;;;;;;-2.34;100.00;96922.81;5131953;27;24946;-77
2022/01/27 02:34:40;;;;;;;28.90;22.17;;;;;;;-2.36;100.00;96919.44;5132261;27;24854;-77
2022/01/27 02:37:09;;;;;;;26.27;20.77;;;;;;;-2.31;100.00;96915.22;5131599;27;24433;-77
2022/01/27 02:39:36;;;;;;;28.13;20.98;;;;;;;-2.30;100.00;96917.78;5131894;27;24425;-77
2022/01/27 02:42:10;;;;;;;25.90;20.08;;;;;;;-2.39;100.00;96920.25;5131948;27;24478;-77
2022/01/27 02:44:43;;;;;;;30.88;21.55;;;;;;;-2.34;100.00;96918.56;5131909;28;24444;-77
2022/01/27 02:47:10;;;;;;;26.10;20.52;;;;;;;-2.46;100.00;96921.03;5132198;28;24420;-77
2022/01/27 02:49:36;;;;;;;28.33;22.50;;;;;;;-2.79;100.00;96927.56;5131634;28;24989;-77
2022/01/27 02:52:03;;;;;;;26.35;21.00;;;;;;;-2.65;100.00;96909.94;5131496;28;24416;-77
2022/01/27 02:54:31;;;;;;;25.10;21.88;;;;;;;-2.52;100.00;96926.94;5131700;28;24973;-77
2022/01/27 02:56:57;;;;;;;26.70;20.08;;;;;;;-2.50;100.00;96924.41;5131391;28;24950;-77
2022/01/27 02:59:24;;;;;;;24.95;20.90;;;;;;;-2.46;100.00;96918.50;5131466;28;24984;-77
2022/01/27 03:01:51;;;;;;;23.58;21.02;;;;;;;-2.29;100.00;96916.09;5131539;28;24420;-77
2022/01/27 03:04:20;;;;;;;24.77;21.13;;;;;;;-2.29;100.00;96926.25;5131747;28;24448;-77
2022/01/27 03:06:47;;;;;;;23.20;19.20;;;;;;;-2.39;100.00;96939.69;5132157;28;24428;-77
2022/01/27 03:09:15;;;;;;;28.77;21.98;;;;;;;-2.01;100.00;96940.75;5132255;28;24436;-77
2022/01/27 03:11:47;;;;;;;27.77;21.50;;;;;;;-1.81;100.00;96940.88;5131848;28;24429;-78
2022/01/27 03:14:15;;;;;;;29.88;21.73;;;;;;;-1.77;100.00;96952.75;5131911;28;24420;-77
2022/01/27 03:16:42;;;;;;;27.10;22.58;;;;;;;-2.02;100.00;96949.22;5133218;28;24417;-77
2022/01/27 03:19:09;;;;;;;28.27;21.83;;;;;;;-2.18;100.00;96946.59;5139296;28;24426;-77
2022/01/27 03:21:36;;;;;;;30.08;22.75;;;;;;;-2.05;100.00;96956.81;5139116;28;24415;-77
2022/01/27 03:24:04;;;;;;;24.67;20.77;;;;;;;-2.03;100.00;96965.31;5138770;28;24805;-77
2022/01/27 03:26:30;;;;;;;26.88;22.92;;;;;;;-2.33;100.00;96970.19;5138580;28;25208;-77
2022/01/27 03:28:59;;;;;;;31.00;22.30;;;;;;;-2.10;100.00;96962.72;5137975;28;24524;-76
2022/01/27 03:31:26;;;;;;;26.25;23.20;;;;;;;-2.29;100.00;96965.16;5137907;28;24935;-77
2022/01/27 03:33:52;;;;;;;28.20;22.73;;;;;;;-2.51;100.00;96956.53;5138054;28;24441;-77
2022/01/27 03:36:19;;;;;;;30.42;23.42;;;;;;;-2.68;100.00;96947.94;5137284;28;24420;-77
2022/01/27 03:38:47;;;;;;;27.52;23.90;;;;;;;-2.45;100.00;96940.50;5137428;28;24432;-77
2022/01/27 03:41:19;;;;;;;32.25;23.00;;;;;;;-2.11;100.00;96941.56;5137975;28;24432;-77
2022/01/27 03:43:47;;;;;;;31.20;23.67;;;;;;;-2.23;100.00;96936.41;5137655;28;24787;-76
2022/01/27 03:46:15;;;;;;;32.88;25.13;;;;;;;-2.21;100.00;96940.66;5138468;28;25038;-76
2022/01/27 03:48:42;;;;;;;33.58;24.75;;;;;;;-2.15;100.00;96933.91;5138726;27;24421;-77
2022/01/27 03:51:08;;;;;;;33.20;25.05;;;;;;;-2.40;100.00;96918.56;5141439;27;24794;-77
2022/01/27 03:53:35;;;;;;;30.13;25.00;;;;;;;-2.58;100.00;96920.97;5141773;27;24782;-76
2022/01/27 03:56:02;;;;;;;30.10;24.45;;;;;;;-2.65;100.00;96909.94;5141139;27;24421;-77
2022/01/27 03:58:28;;;;;;;30.52;24.02;;;;;;;-2.62;100.00;96911.66;5142306;27;24397;-76
2022/01/27 04:00:55;;;;;;;27.52;22.30;;;;;;;-2.65;100.00;96906.56;5141878;27;24436;-77
2022/01/27 04:03:23;;;;;;;29.98;23.90;;;;;;;-2.55;100.00;96906.63;5139163;27;24453;-76
2022/01/27 04:05:53;;;;;;;29.55;23.17;;;;;;;-2.57;100.00;96903.22;5138524;27;24579;-76
2022/01/27 04:08:21;;;;;;;31.47;23.17;;;;;;;-2.60;100.00;96895.59;5139295;27;25026;-77
2022/01/27 04:10:48;;;;;;;29.63;24.55;;;;;;;-2.70;100.00;96899.75;5140852;27;24442;-77
2022/01/27 04:13:14;;;;;;;29.48;23.40;;;;;;;-2.64;100.00;96893.03;5140372;27;25060;-77
2022/01/27 04:15:42;;;;;;;26.02;23.23;;;;;;;-2.69;100.00;96904.00;5134077;27;24456;-77
2022/01/27 04:18:09;;;;;;;31.48;24.40;;;;;;;-2.85;100.00;96896.28;5137682;27;24429;-77
2022/01/27 04:20:37;;;;;;;28.25;24.55;;;;;;;-2.88;100.00;96894.56;5139059;27;24429;-77
2022/01/27 04:23:03;;;;;;;32.45;24.65;;;;;;;-2.93;100.00;96899.59;5130812;27;25023;-77
2022/01/27 04:25:30;;;;;;;29.92;24.40;;;;;;;-3.03;100.00;96891.91;5117852;28;24449;-76
2022/01/27 04:28:01;;;;;;;31.55;24.63;;;;;;;-2.89;100.00;96887.78;5119091;28;24421;-76
2022/01/27 04:30:28;;;;;;;36.03;25.90;;;;;;;-2.97;100.00;96894.47;5130639;27;24460;-77
2022/01/27 04:32:57;;;;;;;32.83;25.67;;;;;;;-3.10;100.00;96883.41;5140669;27;24429;-76
2022/01/27 04:35:27;;;;;;;32.53;24.83;;;;;;;-2.90;100.00;96893.69;5142650;27;25006;-77
2022/01/27 04:38:06;;;;;;;29.48;24.92;;;;;;;-2.79;100.00;96892.06;5142600;27;24429;-77
2022/01/27 04:40:38;;;;;;;30.45;25.30;;;;;;;-2.74;100.00;96889.59;5140037;27;24445;-77
2022/01/27 04:43:11;;;;;;;29.83;24.83;;;;;;;-2.70;100.00;96891.31;5138408;27;24528;-77
2022/01/27 04:45:45;;;;;;;32.75;25.30;;;;;;;-2.68;100.00;96885.38;5137653;27;24440;-77
2022/01/27 04:48:15;;;;;;;30.48;24.60;;;;;;;-2.44;100.00;96886.41;5137699;27;25026;-76
2022/01/27 04:50:42;;;;;;;32.00;26.17;;;;;;;-2.36;100.00;96879.69;5137878;27;24433;-77
2022/01/27 04:53:16;;;;;;;30.75;25.50;;;;;;;-2.78;100.00;96883.66;5138355;27;24458;-77
2022/01/27 04:55:42;;;;;;;31.05;23.92;;;;;;;-2.78;100.00;96883.66;5137680;27;24497;-77
2022/01/27 04:58:14;;;;;;;28.00;23.97;;;;;;;-2.78;100.00;96886.19;5135560;27;24425;-76
2022/01/27 05:00:40;;;;;;;28.73;24.87;;;;;;;-2.80;100.00;96889.53;5129185;27;25022;-77
2022/01/27 05:03:16;;;;;;;31.90;23.88;;;;;;;-2.85;100.00;96888.66;5136487;27;24429;-77
2022/01/27 05:05:43;;;;;;;30.70;23.88;;;;;;;-2.85;100.00;96891.19;5136518;27;24824;-77
2022/01/27 05:08:17;;;;;;;28.88;22.13;;;;;;;-2.81;100.00;96896.31;5135510;27;24432;-77
2022/01/27 05:10:53;;;;;;;26.67;22.48;;;;;;;-2.80;100.00;96894.59;5133501;27;24786;-78
2022/01/27 05:13:21;;;;;;;31.05;24.63;;;;;;;-2.87;100.00;96885.25;5133281;27;24991;-77
2022/01/27 05:15:48;;;;;;;34.85;24.65;;;;;;;-3.01;100.00;96888.53;5133237;27;24436;-78
2022/01/27 05:18:16;;;;;;;29.88;23.58;;;;;;;-3.19;100.00;96893.44;5133020;27;24444;-77
2022/01/27 05:20:43;;;;;;;26.80;22.20;;;;;;;-3.32;100.00;96894.19;5132892;27;24516;-77
2022/01/27 05:23:11;;;;;;;27.85;22.90;;;;;;;-3.48;100.00;96886.44;5132883;27;24965;-77
2022/01/27 05:25:37;;;;;;;25.17;22.05;;;;;;;-3.35;100.00;96895.00;5132867;27;24464;-78
2022/01/27 05:28:04;;;;;;;29.20;22.90;;;;;;;-3.17;100.00;96881.66;5132680;27;24989;-78
2022/01/27 05:30:31;;;;;;;28.70;23.40;;;;;;;-3.07;100.00;96875.81;5132660;27;24424;-77
2022/01/27 05:32:57;;;;;;;28.00;24.17;;;;;;;-3.24;100.00;96877.34;5132612;27;24956;-77
2022/01/27 05:35:24;;;;;;;29.77;22.48;;;;;;;-3.12;100.00;96872.38;5132503;27;24405;-77
2022/01/27 05:37:50;;;;;;;27.45;22.95;;;;;;;-3.13;100.00;96872.38;5133399;27;24949;-80
2022/01/27 05:40:18;;;;;;;30.05;23.10;;;;;;;-3.12;100.00;96854.66;5137259;27;24425;-79
2022/01/27 05:42:45;;;;;;;30.95;22.88;;;;;;;-3.11;100.00;96853.00;5136545;27;24429;-80
2022/01/27 05:45:11;;;;;;;29.77;22.30;;;;;;;-3.22;100.00;96853.75;5136881;27;24982;-79
2022/01/27 05:47:38;;;;;;;24.33;21.73;;;;;;;-3.16;100.00;96853.78;5132772;27;24446;-77
2022/01/27 05:50:06;;;;;;;31.85;23.48;;;;;;;-3.13;100.00;96852.94;5133213;27;24428;-77
2022/01/27 05:52:32;;;;;;;29.83;23.63;;;;;;;-3.09;100.00;96859.75;5129614;27;24432;-77
2022/01/27 05:54:59;;;;;;;31.30;23.75;;;;;;;-3.49;100.00;96872.06;5142554;27;24992;-77
2022/01/27 05:57:27;;;;;;;32.22;24.33;;;;;;;-3.70;100.00;96879.47;5153529;27;24412;-77
2022/01/27 05:59:53;;;;;;;29.95;22.48;;;;;;;-3.66;100.00;96876.97;5153510;27;24949;-77
2022/01/27 06:02:20;;;;;;;27.33;22.60;;;;;;;-3.69;100.00;96881.16;5140348;27;24432;-78
2022/01/27 06:04:46;;;;;;;29.27;23.07;;;;;;;-3.68;100.00;96883.69;5149405;27;24445;-77
2022/01/27 06:07:13;;;;;;;32.47;23.83;;;;;;;-3.84;100.00;96886.91;5153624;27;24420;-77
2022/01/27 06:09:40;;;;;;;28.67;21.80;;;;;;;-3.63;100.00;96891.34;5129117;27;24478;-78
2022/01/27 06:12:07;;;;;;;25.50;21.45;;;;;;;-3.50;100.00;96885.56;5140538;27;24482;-78
2022/01/27 06:14:35;;;;;;;32.17;23.80;;;;;;;-3.49;100.00;96889.78;5140736;27;24425;-78
2022/01/27 06:17:02;;;;;;;29.33;23.37;;;;;;;-3.71;100.00;96891.28;5132158;27;24424;-78
2022/01/27 06:19:28;;;;;;;31.45;22.38;;;;;;;-3.87;100.00;96891.06;5132858;27;24425;-78
2022/01/27 06:21:55;;;;;;;27.52;21.77;;;;;;;-4.03;100.00;96885.00;5140598;27;25089;-78
2022/01/27 06:24:21;;;;;;;27.92;23.67;;;;;;;-4.01;100.00;96894.28;5132519;27;24420;-78
2022/01/27 06:26:48;;;;;;;29.37;22.30;;;;;;;-3.82;100.00;96897.03;5132073;27;24474;-78
2022/01/27 06:29:14;;;;;;;26.88;22.38;;;;;;;-3.61;100.00;96898.94;5132134;27;24501;-78
2022/01/27 06:31:42;;;;;;;23.80;21.25;;;;;;;-3.46;100.00;96909.22;5132184;27;24825;-78
2022/01/27 06:34:08;;;;;;;30.35;23.48;;;;;;;-3.17;100.00;96909.50;5132582;27;24429;-78
2022/01/27 06:36:35;;;;;;;32.60;24.48;;;;;;;-2.85;100.00;96909.78;5138514;27;25008;-78
2022/01/27 06:39:01;;;;;;;28.08;22.42;;;;;;;-3.02;100.00;96906.25;5134022;27;24429;-78
2022/01/27 06:41:28;;;;;;;32.58;24.40;;;;;;;-2.82;100.00;96901.34;5133002;27;24432;-79
2022/01/27 06:43:56;;;;;;;26.98;22.25;;;;;;;-2.95;100.00;96900.41;5131354;27;24417;-77
2022/01/27 06:46:22;;;;;;;30.15;23.00;;;;;;;-2.80;100.00;96895.47;5125752;28;25059;-77
2022/01/27 06:48:50;;;;;;;31.42;23.25;;;;;;;-2.59;100.00;96896.47;5137024;27;25007;-78
2022/01/27 06:51:17;;;;;;;29.73;23.30;;;;;;;-2.67;100.00;96901.44;5124784;27;24440;-77
2022/01/27 06:53:43;;;;;;;30.30;23.38;;;;;;;-2.67;100.00;96898.91;5116970;28;24451;-77
2022/01/27 06:56:09;;;;;;;32.33;23.25;;;;;;;-2.71;100.00;96895.53;5131126;28;24771;-77
2022/01/27 06:58:37;;;;;;;29.88;23.63;;;;;;;-2.51;100.00;96892.28;5122541;28;24787;-77
2022/01/27 07:01:03;;;;;;;28.20;22.58;;;;;;;-2.68;100.00;96902.28;5128366;28;24441;-77
2022/01/27 07:03:30;;;;;;;30.52;24.50;;;;;;;-2.67;100.00;96901.44;5132786;28;24413;-77
2022/01/27 07:05:58;;;;;;;31.40;24.77;;;;;;;-2.43;100.00;96900.78;5131702;28;24445;-76
2022/01/27 07:08:24;;;;;;;27.98;23.17;;;;;;;-2.63;100.00;96902.31;5130830;28;24436;-76
2022/01/27 07:10:51;;;;;;;30.45;23.52;;;;;;;-2.72;100.00;96893.81;5131399;28;24446;-77
2022/01/27 07:13:17;;;;;;;28.90;22.35;;;;;;;-2.69;100.00;96901.44;5131810;28;24420;-76
2022/01/27 07:15:43;;;;;;;33.22;22.42;;;;;;;-2.92;100.00;96896.22;5130896;28;24425;-77
2022/01/27 07:18:10;;;;;;;27.17;20.63;;;;;;;-2.80;100.00;96892.06;5131020;28;24825;-77
2022/01/27 07:20:37;;;;;;;27.38;22.05;;;;;;;-2.79;100.00;96889.53;5131145;28;24468;-77
2022/01/27 07:23:07;;;;;;;32.83;20.92;;;;;;;-3.33;100.00;96882.34;5131714;27;25030;-77
2022/01/27 07:25:34;;;;;;;35.20;20.50;;;;;;;-3.46;100.00;96899.94;5135053;27;24972;-78
2022/01/27 07:28:00;;;;;;;28.45;21.45;;;;;;;-3.46;100.00;96899.09;5134710;27;24965;-77
2022/01/27 07:30:27;;;;;;;38.33;22.60;;;;;;;-3.54;100.00;96904.09;5134678;27;24429;-75
2022/01/27 07:32:53;;;;;;;27.00;21.95;;;;;;;-3.41;100.00;96917.75;5136685;27;24409;-77
2022/01/27 07:35:20;;;;;;;30.27;22.20;;;;;;;-2.59;100.00;96914.22;5135171;27;24416;-79
2022/01/27 07:37:46;;;;;;;30.30;21.40;;;;;;;-2.59;100.00;96915.06;5134290;27;24824;-78
2022/01/27 07:40:15;;;;;;;26.27;20.65;;;;;;;-2.80;100.00;96920.81;5134541;27;24418;-78
2022/01/27 07:42:41;;;;;;;25.52;20.35;;;;;;;-2.81;100.00;96934.34;5137357;27;24420;-78
2022/01/27 07:45:09;;;;;;;28.27;21.23;;;;;;;-2.93;100.00;96919.88;5135376;27;24953;-79
2022/01/27 07:47:36;;;;;;;27.48;20.77;;;;;;;-2.90;100.00;96926.63;5136410;27;24517;-78
2022/01/27 07:50:02;;;;;;;28.30;20.38;;;;;;;-2.90;100.00;96928.31;5135410;27;24432;-79
2022/01/27 07:52:28;;;;;;;27.02;21.35;;;;;;;-2.89;100.00;96917.34;5135835;27;24431;-79
2022/01/27 07:54:55;;;;;;;30.92;22.50;;;;;;;-2.97;100.00;96917.28;5135404;27;24461;-78
2022/01/27 07:57:23;;;;;;;29.60;21.48;;;;;;;-2.88;100.00;96919.91;5135102;27;24428;-78
2022/01/27 07:59:49;;;;;;;29.60;21.30;;;;;;;-2.54;100.00;96915.09;5142584;27;24437;-74
2022/01/27 08:02:16;;;;;;;26.65;20.92;;;;;;;-2.64;100.00;96920.91;5113983;28;24467;-73
2022/01/27 08:04:43;;;;;;;28.25;20.95;;;;;;;-2.63;100.00;96920.06;5113496;28;24516;-73
2022/01/27 08:07:10;;;;;;;36.15;20.52;;;;;;;-2.57;100.00;96926.03;5113259;28;24477;-73
2022/01/27 08:09:37;;;;;;;28.48;20.10;;;;;;;-2.55;100.00;96926.91;5129827;27;24817;-73
2022/01/27 08:12:04;;;;;;;30.92;21.10;;;;;;;-2.54;100.00;96927.75;5134200;27;25006;-73
2022/01/27 08:14:32;;;;;;;28.20;21.98;;;;;;;-2.71;100.00;96928.50;5133280;27;24836;-74
2022/01/27 08:16:58;;;;;;;35.55;23.95;;;;;;;-2.86;100.00;96930.03;5133590;27;24424;-74
2022/01/27 08:19:24;;;;;;;29.20;22.85;;;;;;;-2.85;100.00;96932.63;5133902;27;24449;-74
2022/01/27 08:21:51;;;;;;;29.52;22.10;;;;;;;-2.87;100.00;96939.34;5133092;27;25001;-73
2022/01/27 08:24:18;;;;;;;30.35;22.70;;;;;;;-3.05;100.00;96946.78;5126126;27;24429;-73
2022/01/27 08:26:46;;;;;;;34.08;22.60;;;;;;;-3.14;100.00;96946.72;5112907;28;24440;-74
2022/01/27 08:29:18;;;;;;;28.83;23.17;;;;;;;-3.09;100.00;96947.59;5114131;27;24516;-74
2022/01/27 08:31:58;;;;;;;37.47;24.25;;;;;;;-3.28;100.00;96944.88;5133565;27;24425;-74
2022/01/27 08:34:32;;;;;;;31.97;23.13;;;;;;;-3.26;100.00;96940.69;5133239;27;24413;-72
2022/01/27 08:36:59;;;;;;;30.33;22.60;;;;;;;-3.05;100.00;96951.84;5133464;27;24887;-72
2022/01/27 08:39:26;;;;;;;27.38;22.75;;;;;;;-3.06;100.00;96945.94;5133086;27;24806;-68
2022/01/27 08:41:52;;;;;;;31.13;22.35;;;;;;;-2.95;100.00;96944.34;5133797;27;24479;-72
2022/01/27 08:44:19;;;;;;;26.43;21.10;;;;;;;-3.02;100.00;96947.66;5131023;27;24413;-77
2022/01/27 08:46:47;;;;;;;34.35;21.63;;;;;;;-3.21;100.00;96948.34;5112278;28;24449;-73
2022/01/27 08:49:14;;;;;;;26.58;20.70;;;;;;;-3.21;100.00;96946.63;5112481;28;24799;-72
2022/01/27 08:51:42;;;;;;;29.23;21.95;;;;;;;-3.05;100.00;96946.78;5130882;27;24429;-72
2022/01/27 08:54:08;;;;;;;33.30;22.20;;;;;;;-2.98;100.00;96953.59;5133082;27;24428;-72
2022/01/27 08:56:35;;;;;;;29.27;21.15;;;;;;;-2.64;100.00;96943.75;5132711;27;24640;-73
2022/01/27 08:59:01;;;;;;;29.42;19.77;;;;;;;-2.58;100.00;96943.81;5132959;27;24824;-73
2022/01/27 09:01:28;;;;;;;31.52;21.30;;;;;;;-1.96;100.00;96941.66;5132359;27;24786;-72
2022/01/27 09:03:56;;;;;;;26.05;20.65;;;;;;;-1.95;100.00;96942.50;5132669;27;24421;-72
2022/01/27 09:06:23;;;;;;;28.25;20.67;;;;;;;-1.92;100.00;96946.75;5133070;27;24445;-73
2022/01/27 09:08:50;;;;;;;27.55;21.77;;;;;;;-1.48;100.00;96936.75;5132951;27;24409;-73
2022/01/27 09:11:17;;;;;;;27.83;20.42;;;;;;;-1.31;100.00;96931.72;5111930;28;24956;-74
2022/01/27 09:13:44;;;;;;;28.35;20.25;;;;;;;-1.30;100.00;96933.41;5112271;28;24409;-74
2022/01/27 09:16:11;;;;;;;34.45;20.38;;;;;;;-1.30;100.00;96929.19;5129073;27;24421;-74
2022/01/27 09:18:38;;;;;;;33.17;21.73;;;;;;;-1.59;100.00;96934.19;5132821;27;24416;-74
2022/01/27 09:21:11;;;;;;;21.60;17.02;;;;;;;-1.91;100.00;96931.50;5132561;27;24505;-74
2022/01/27 09:23:38;;;;;;;28.15;18.83;;;;;;;-2.00;100.00;96931.47;5132315;27;24564;-74
2022/01/27 09:26:08;;;;;;;24.80;16.65;;;;;;;-2.19;100.00;96930.50;5131953;27;24532;-73
2022/01/27 09:28:35;;;;;;;21.77;16.42;;;;;;;-2.19;100.00;96925.44;5132226;27;24420;-74
2022/01/27 09:31:01;;;;;;;22.55;16.38;;;;;;;-1.92;100.00;96922.19;5131904;27;24432;-73
2022/01/27 09:33:28;;;;;;;21.88;16.05;;;;;;;-1.77;100.00;96919.72;5132498;27;24450;-73
2022/01/27 09:35:54;;;;;;;21.93;16.93;;;;;;;-1.86;100.00;96927.28;5131981;27;24465;-74
2022/01/27 09:38:22;;;;;;;26.42;18.23;;;;;;;-1.90;100.00;96922.19;5132314;27;24420;-74
2022/01/27 09:40:50;;;;;;;24.40;17.02;;;;;;;-1.73;100.00;96918.88;5131648;27;24437;-74
2022/01/27 09:43:17;;;;;;;21.58;17.63;;;;;;;-1.81;100.00;96930.72;5131818;27;24451;-73
2022/01/27 09:45:44;;;;;;;25.90;18.08;;;;;;;-1.84;100.00;96919.69;5117287;27;25014;-74
2022/01/27 09:48:15;;;;;;;23.40;17.52;;;;;;;-1.78;100.00;96928.19;5110892;28;24414;-74
2022/01/27 09:50:59;;;;;;;26.27;18.67;;;;;;;-1.60;100.00;96919.75;5121420;27;24465;-74
2022/01/27 09:53:29;;;;;;;26.30;19.10;;;;;;;-1.74;100.00;96919.75;5111551;28;24459;-74
2022/01/27 09:55:55;;;;;;;30.30;19.40;;;;;;;-1.66;100.00;96913.84;5111274;28;24457;-73
2022/01/27 09:58:22;;;;;;;25.52;19.55;;;;;;;-1.75;100.00;96910.41;5111570;28;24425;-73
2022/01/27 10:00:48;;;;;;;20.83;17.65;;;;;;;-1.75;100.00;96917.19;5125870;27;24437;-71
2022/01/27 10:03:17;;;;;;;26.90;19.20;;;;;;;-1.64;100.00;96909.59;5131838;27;24443;-72
2022/01/27 10:05:45;;;;;;;25.02;19.40;;;;;;;-1.85;100.00;96907.84;5131511;27;24412;-72
2022/01/27 10:08:15;;;;;;;28.50;20.73;;;;;;;-1.86;100.00;96909.50;5130842;27;24441;-72
2022/01/27 10:10:45;;;;;;;28.65;19.52;;;;;;;-1.66;100.00;96907.06;5131967;27;24463;-73
2022/01/27 10:13:26;;;;;;;30.42;21.35;;;;;;;-1.93;100.00;96902.72;5131820;27;24421;-73
2022/01/27 10:15:55;;;;;;;29.73;21.00;;;;;;;-1.95;100.00;96901.88;5130991;27;24438;-72
2022/01/27 10:18:24;;;;;;;27.95;19.73;;;;;;;-1.78;100.00;96899.38;5131567;27;24425;-72
2022/01/27 10:20:58;;;;;;;26.70;19.58;;;;;;;-1.74;100.00;96901.13;5130878;27;24472;-73
2022/01/27 10:23:30;;;;;;;24.60;19.33;;;;;;;-1.37;100.00;96903.72;5131211;27;24425;-73
2022/01/27 10:26:08;;;;;;;28.10;19.27;;;;;;;-1.53;100.00;96906.25;5126474;27;24492;-74
2022/01/27 10:28:43;;;;;;;25.33;19.13;;;;;;;-1.47;100.00;96907.97;5131197;27;25098;-72
2022/01/27 10:31:11;;;;;;;26.65;19.13;;;;;;;-1.44;100.00;96905.44;5112948;27;24448;-74
2022/01/27 10:33:42;;;;;;;23.73;19.57;;;;;;;-1.42;100.00;96905.41;5110975;28;24424;-72
2022/01/27 10:36:17;;;;;;;25.20;20.27;;;;;;;-1.54;100.00;96899.47;5110774;28;24425;-71
2022/01/27 10:38:44;;;;;;;27.25;18.95;;;;;;;-1.49;100.00;96902.84;5127912;27;24478;-72
2022/01/27 10:41:11;;;;;;;28.70;19.60;;;;;;;-1.53;100.00;96913.00;5131092;27;24425;-72
2022/01/27 10:43:40;;;;;;;22.02;19.63;;;;;;;-1.84;100.00;96904.47;5131053;27;24424;-72
2022/01/27 10:46:11;;;;;;;26.80;21.20;;;;;;;-1.95;100.00;96896.78;5124643;27;24442;-72
2022/01/27 10:48:43;;;;;;;26.08;19.92;;;;;;;-1.85;100.00;96898.53;5132639;27;24436;-72
2022/01/27 10:51:18;;;;;;;31.50;22.85;;;;;;;-1.83;100.00;96891.75;5127107;27;24495;-72
2022/01/27 10:54:00;;;;;;;31.67;22.60;;;;;;;-1.90;100.00;96887.50;5134131;27;24523;-72
2022/01/27 10:56:29;;;;;;;29.02;19.90;;;;;;;-1.90;100.00;96890.03;5110390;28;24421;-72
2022/01/27 10:58:58;;;;;;;23.88;19.35;;;;;;;-1.85;100.00;96888.38;5113808;28;24425;-72
2022/01/27 11:01:30;;;;;;;35.92;21.17;;;;;;;-1.77;100.00;96894.31;5135967;27;24433;-73
2022/01/27 11:04:01;;;;;;;25.33;19.13;;;;;;;-1.91;100.00;96893.41;5135348;27;24409;-74
2022/01/27 11:06:29;;;;;;;28.85;19.00;;;;;;;-1.84;100.00;96890.06;5134897;27;24807;-74
2022/01/27 11:08:59;;;;;;;24.95;19.58;;;;;;;-1.87;100.00;96891.75;5127269;27;24445;-73
2022/01/27 11:11:27;;;;;;;26.40;18.02;;;;;;;-1.74;100.00;96889.25;5114894;28;24462;-74
2022/01/27 11:13:58;;;;;;;27.05;19.02;;;;;;;-1.74;100.00;96894.34;5114953;28;24524;-74
2022/01/27 11:16:30;;;;;;;28.85;20.08;;;;;;;-1.67;100.00;96884.19;5114610;28;24421;-73
2022/01/27 11:19:11;;;;;;;26.25;18.60;;;;;;;-1.68;100.00;96888.41;5114498;28;24430;-73
2022/01/27 11:21:40;;;;;;;26.55;19.27;;;;;;;-1.71;100.00;96884.19;5132686;27;24539;-73
2022/01/27 11:24:17;;;;;;;22.42;17.60;;;;;;;-1.62;100.00;96874.91;5122804;27;24437;-74
2022/01/27 11:26:47;;;;;;;32.40;19.80;;;;;;;-1.51;100.00;96863.91;5114131;28;24528;-73
2022/01/27 11:29:15;;;;;;;29.88;20.80;;;;;;;-1.52;100.00;96859.69;5115290;27;24968;-74
2022/01/27 11:32:08;;;;;;;27.92;19.85;;;;;;;-1.31;100.00;96847.84;5134611;27;24432;-74
2022/01/27 11:34:51;;;;;;;24.60;18.80;;;;;;;-1.20;100.00;96847.84;5134983;27;24417;-73
2022/01/27 11:37:30;;;;;;;27.83;20.00;;;;;;;-1.07;100.00;96849.56;5134170;27;24436;-74
2022/01/27 11:39:57;;;;;;;28.85;20.00;;;;;;;-1.12;100.00;96852.06;5134501;27;24429;-74